createdAt,value
2023-02-04T00:00:15.418Z,10.55
2023-02-04T00:03:02.507Z,11.20
2023-02-04T00:05:30.050Z,11.30
2023-02-04T00:07:57.846Z,16.25
2023-02-04T00:10:25.343Z,6.75
2023-02-04T00:12:56.688Z,10.60
2023-02-04T00:15:24.736Z,10.60
2023-02-04T00:17:51.795Z,8.30
2023-02-04T00:20:19.857Z,15.02
2023-02-04T00:22:48.835Z,8.65
2023-02-04T00:25:20.110Z,9.32
2023-02-04T00:27:47.138Z,8.93
2023-02-04T00:30:14.670Z,9.15
2023-02-04T00:32:41.662Z,9.23
2023-02-04T00:35:13.579Z,9.70
2023-02-04T00:37:44.184Z,14.52
2023-02-04T00:40:15.002Z,8.48
2023-02-04T00:42:42.227Z,9.80
2023-02-04T00:45:11.162Z,10.20
2023-02-04T00:47:38.786Z,10.55
2023-02-04T00:50:06.595Z,10.38
2023-02-04T00:52:33.795Z,14.45
2023-02-04T00:55:01.637Z,11.57
2023-02-04T00:57:28.807Z,11.27
2023-02-04T00:59:56.266Z,9.23
2023-02-04T01:02:23.371Z,8.00
2023-02-04T01:04:52.213Z,7.10
2023-02-04T01:07:19.785Z,8.15
2023-02-04T01:09:47.249Z,9.75
2023-02-04T01:12:14.251Z,8.73
2023-02-04T01:14:41.739Z,7.45
2023-02-04T01:17:08.836Z,10.00
2023-02-04T01:19:36.138Z,7.97
2023-02-04T01:22:03.097Z,7.40
2023-02-04T01:24:30.458Z,7.50
2023-02-04T01:27:16.334Z,8.88
2023-02-04T01:29:43.869Z,6.93
2023-02-04T01:32:11.379Z,9.18
2023-02-04T01:34:38.635Z,6.75
2023-02-04T01:37:06.987Z,7.22
2023-02-04T01:39:36.874Z,7.50
2023-02-04T01:42:04.336Z,9.60
2023-02-04T01:44:31.924Z,6.90
2023-02-04T01:46:59.171Z,6.80
2023-02-04T01:49:27.105Z,7.75
2023-02-04T01:51:54.533Z,8.10
2023-02-04T01:54:22.083Z,6.25
2023-02-04T01:56:51.590Z,7.63
2023-02-04T01:59:19.496Z,11.45
2023-02-04T02:01:49.681Z,6.22
2023-02-04T02:04:31.262Z,6.13
2023-02-04T02:07:05.623Z,7.97
2023-02-04T02:09:34.198Z,7.28
2023-02-04T02:12:03.180Z,7.05
2023-02-04T02:14:30.659Z,6.53
2023-02-04T02:16:58.083Z,10.50
2023-02-04T02:19:36.001Z,7.95
2023-02-04T02:24:35.133Z,5.82
2023-02-04T02:27:07.246Z,6.72
2023-02-04T02:29:35.512Z,6.65
2023-02-04T02:32:02.632Z,6.82
2023-02-04T02:34:30.642Z,5.90
2023-02-04T02:36:59.424Z,6.97
2023-02-04T02:39:27.679Z,6.55
2023-02-04T02:41:56.176Z,6.38
2023-02-04T02:44:24.936Z,6.80
2023-02-04T02:46:53.210Z,6.43
2023-02-04T02:49:21.229Z,8.40
2023-02-04T02:51:48.838Z,6.20
2023-02-04T02:54:26.628Z,6.80
2023-02-04T02:56:57.607Z,7.70
2023-02-04T02:59:25.966Z,6.47
2023-02-04T03:01:57.992Z,5.90
2023-02-04T03:04:29.995Z,6.20
2023-02-04T03:06:57.315Z,11.75
2023-02-04T03:09:30.107Z,6.10
2023-02-04T03:11:57.513Z,6.15
2023-02-04T03:14:26.198Z,7.82
2023-02-04T03:16:55.173Z,5.47
2023-02-04T03:19:24.559Z,9.05
2023-02-04T03:21:52.010Z,10.35
2023-02-04T03:24:19.710Z,5.50
2023-02-04T03:26:46.881Z,5.35
2023-02-04T03:29:14.427Z,5.88
2023-02-04T03:31:42.002Z,4.68
2023-02-04T03:34:09.306Z,5.60
2023-02-04T03:36:36.686Z,5.63
2023-02-04T03:39:06.765Z,5.70
2023-02-04T03:41:33.969Z,4.95
2023-02-04T03:44:01.244Z,5.20
2023-02-04T03:46:28.863Z,6.40
2023-02-04T03:48:56.249Z,5.10
2023-02-04T03:51:23.296Z,4.90
2023-02-04T03:53:50.583Z,4.97
2023-02-04T03:56:17.675Z,4.78
2023-02-04T03:58:45.026Z,4.32
2023-02-04T04:01:14.663Z,3.83
2023-02-04T04:03:42.070Z,4.10
2023-02-04T04:06:10.846Z,4.57
2023-02-04T04:08:38.903Z,3.50
2023-02-04T04:11:06.034Z,3.80
2023-02-04T04:13:35.448Z,3.45
2023-02-04T04:16:05.052Z,3.13
2023-02-04T04:18:33.548Z,3.72
2023-02-04T04:21:00.573Z,3.45
2023-02-04T04:23:28.023Z,4.60
2023-02-04T04:25:55.077Z,2.55
2023-02-04T04:28:22.522Z,4.45
2023-02-04T04:30:49.558Z,3.80
2023-02-04T04:33:16.976Z,3.22
2023-02-04T04:35:43.970Z,2.92
2023-02-04T04:38:11.360Z,2.95
2023-02-04T04:40:38.364Z,2.72
2023-02-04T04:43:07.995Z,3.35
2023-02-04T04:45:35.412Z,2.50
2023-02-04T04:48:02.756Z,3.65
2023-02-04T04:50:30.110Z,3.70
2023-02-04T04:52:57.679Z,4.20
2023-02-04T04:55:24.685Z,3.17
2023-02-04T04:57:54.990Z,3.35
2023-02-04T05:00:22.549Z,2.92
2023-02-04T05:02:49.903Z,2.53
2023-02-04T05:05:17.077Z,2.58
2023-02-04T05:07:44.804Z,2.30
2023-02-04T05:10:11.806Z,2.50
2023-02-04T05:12:39.197Z,2.85
2023-02-04T05:15:06.688Z,3.65
2023-02-04T05:17:34.170Z,2.80
2023-02-04T05:20:01.230Z,2.70
2023-02-04T05:22:28.573Z,6.55
2023-02-04T05:24:55.668Z,4.63
2023-02-04T05:27:23.174Z,2.60
2023-02-04T05:29:50.085Z,2.10
2023-02-04T05:32:17.361Z,2.40
2023-02-04T05:34:44.387Z,2.35
2023-02-04T05:37:12.179Z,2.45
2023-02-04T05:39:39.653Z,2.42
2023-02-04T05:42:06.934Z,2.63
2023-02-04T05:44:33.928Z,2.72
2023-02-04T05:47:01.301Z,2.83
2023-02-04T05:49:28.741Z,3.15
2023-02-04T05:51:56.546Z,3.83
2023-02-04T05:54:23.941Z,2.60
2023-02-04T05:56:54.543Z,2.80
2023-02-04T05:59:22.944Z,3.03
2023-02-04T06:01:50.443Z,3.75
2023-02-04T06:04:17.942Z,5.65
2023-02-04T06:06:45.570Z,6.13
2023-02-04T06:09:13.242Z,7.30
2023-02-04T06:11:40.784Z,8.48
2023-02-04T06:14:07.972Z,8.32
2023-02-04T06:16:35.438Z,19.00
2023-02-04T06:19:02.734Z,14.57
2023-02-04T06:21:30.765Z,13.30
2023-02-04T06:23:57.762Z,13.50
2023-02-04T06:26:25.034Z,8.10
2023-02-04T06:28:52.419Z,12.00
2023-02-04T06:31:20.182Z,11.93
2023-02-04T06:33:47.238Z,16.20
2023-02-04T06:36:14.826Z,15.15
2023-02-04T06:38:41.944Z,14.90
2023-02-04T06:41:09.279Z,12.07
2023-02-04T06:43:36.299Z,12.23
2023-02-04T06:46:03.606Z,15.98
2023-02-04T06:48:31.229Z,20.05
2023-02-04T06:50:58.697Z,9.10
2023-02-04T06:53:25.743Z,11.02
2023-02-04T06:55:53.223Z,15.23
2023-02-04T06:58:20.305Z,15.60
2023-02-04T07:00:47.807Z,13.20
2023-02-04T07:03:14.799Z,12.38
2023-02-04T07:05:42.196Z,7.90
2023-02-04T07:08:09.424Z,8.15
2023-02-04T07:10:37.162Z,11.82
2023-02-04T07:13:04.609Z,17.90
2023-02-04T07:15:32.086Z,16.92
2023-02-04T07:18:00.191Z,28.52
2023-02-04T07:20:28.030Z,12.63
2023-02-04T07:22:57.187Z,9.57
2023-02-04T07:25:24.604Z,9.68
2023-02-04T07:27:51.636Z,9.07
2023-02-04T07:30:20.241Z,10.98
2023-02-04T07:32:47.204Z,9.85
2023-02-04T07:35:14.795Z,8.13
2023-02-04T07:37:41.811Z,9.30
2023-02-04T07:40:10.603Z,8.77
2023-02-04T07:42:37.855Z,8.25
2023-02-04T07:45:11.434Z,11.00
2023-02-04T07:47:38.430Z,7.63
2023-02-04T07:50:06.958Z,12.70
2023-02-04T07:52:34.154Z,14.82
2023-02-04T07:55:01.616Z,8.13
2023-02-04T07:57:30.054Z,7.25
2023-02-04T07:59:57.844Z,7.72
2023-02-04T08:02:25.412Z,5.50
2023-02-04T08:04:53.162Z,7.50
2023-02-04T08:07:20.240Z,7.38
2023-02-04T08:09:47.560Z,4.95
2023-02-04T08:12:14.582Z,4.63
2023-02-04T08:14:41.860Z,7.10
2023-02-04T08:17:08.871Z,7.60
2023-02-04T08:19:36.157Z,4.00
2023-02-04T08:22:04.260Z,7.15
2023-02-04T08:24:31.956Z,8.13
2023-02-04T08:26:59.480Z,6.43
2023-02-04T08:29:29.621Z,8.75
2023-02-04T08:31:56.795Z,12.60
2023-02-04T08:34:24.564Z,17.75
2023-02-04T08:36:52.067Z,14.90
2023-02-04T08:39:19.393Z,9.80
2023-02-04T08:41:46.550Z,9.32
2023-02-04T08:44:13.816Z,50.60
2023-02-04T08:46:41.044Z,35.25
2023-02-04T08:49:08.391Z,31.08
2023-02-04T08:51:35.453Z,16.85
2023-02-04T08:54:03.166Z,13.35
2023-02-04T08:56:31.163Z,28.63
2023-02-04T08:58:58.490Z,36.25
2023-02-04T09:01:25.531Z,31.20
2023-02-04T09:03:52.969Z,18.95
2023-02-04T09:06:19.960Z,51.35
2023-02-04T09:08:47.670Z,41.58
2023-02-04T09:11:14.950Z,52.80
2023-02-04T09:13:42.649Z,38.63
2023-02-04T09:16:10.813Z,82.97
2023-02-04T09:18:38.657Z,21.80
2023-02-04T09:21:05.773Z,27.48
2023-02-04T09:23:33.044Z,27.50
2023-02-04T09:26:01.366Z,36.30
2023-02-04T09:28:28.989Z,46.15
2023-02-04T09:30:56.238Z,138.15
2023-02-04T09:33:24.156Z,53.28
2023-02-04T09:35:52.744Z,67.10
2023-02-04T09:38:22.006Z,89.00
2023-02-04T09:40:54.588Z,57.53
2023-02-04T09:43:27.736Z,86.32
2023-02-04T09:45:55.505Z,71.60
2023-02-04T09:48:24.620Z,58.40
2023-02-04T09:50:52.892Z,59.97
2023-02-04T09:53:25.703Z,64.03
2023-02-04T09:55:53.056Z,225.88
2023-02-04T09:58:22.593Z,62.17
2023-02-04T10:00:59.237Z,44.45
2023-02-04T10:03:26.939Z,45.90
2023-02-04T10:05:54.469Z,65.43
2023-02-04T10:08:31.285Z,67.55
2023-02-04T10:10:58.364Z,31.40
2023-02-04T10:13:36.135Z,77.25
2023-02-04T10:16:11.030Z,90.88
2023-02-04T10:18:38.900Z,75.43
2023-02-04T10:21:20.818Z,32.67
2023-02-04T10:23:51.413Z,27.40
2023-02-04T10:26:20.492Z,40.10
2023-02-04T10:28:49.739Z,215.30
2023-02-04T10:31:30.010Z,369.50
2023-02-04T10:34:13.983Z,323.67
2023-02-04T10:36:43.417Z,117.65
2023-02-04T10:39:20.441Z,52.15
2023-02-04T10:41:50.618Z,54.30
2023-02-04T10:44:30.331Z,42.88
2023-02-04T10:47:31.326Z,40.17
2023-02-04T10:50:14.856Z,343.33
2023-02-04T10:52:46.110Z,167.85
2023-02-04T10:55:23.630Z,125.97
2023-02-04T10:57:52.877Z,193.10
2023-02-04T11:00:23.366Z,173.88
2023-02-04T11:03:04.903Z,33.90
2023-02-04T11:05:36.542Z,121.63
2023-02-04T11:08:19.651Z,309.05
2023-02-04T11:10:47.502Z,259.88
2023-02-04T11:13:23.927Z,178.90
2023-02-04T11:16:14.570Z,281.67
2023-02-04T11:18:44.830Z,159.68
2023-02-04T11:21:33.700Z,89.75
2023-02-04T11:24:16.713Z,225.38
2023-02-04T11:26:51.815Z,266.65
2023-02-04T11:29:34.759Z,48.55
2023-02-04T11:32:05.256Z,111.80
2023-02-04T11:34:44.853Z,40.25
2023-02-04T11:37:17.693Z,31.17
2023-02-04T11:39:50.595Z,64.30
2023-02-04T11:42:40.917Z,41.50
2023-02-04T11:45:22.551Z,41.35
2023-02-04T11:47:51.784Z,60.90
2023-02-04T11:50:34.253Z,19.10
2023-02-04T11:53:03.253Z,26.20
2023-02-04T11:55:36.652Z,23.25
2023-02-04T11:58:13.986Z,34.63
2023-02-04T12:00:42.475Z,37.45
2023-02-04T12:03:34.354Z,21.33
2023-02-04T12:06:03.305Z,34.22
2023-02-04T12:08:33.432Z,36.42
2023-02-04T12:11:11.301Z,27.95
2023-02-04T12:13:50.214Z,21.52
2023-02-04T12:16:17.776Z,27.25
2023-02-04T12:18:45.274Z,38.28
2023-02-04T12:21:14.318Z,24.67
2023-02-04T12:23:44.750Z,31.63
2023-02-04T12:26:12.454Z,45.20
2023-02-04T12:28:39.797Z,57.53
2023-02-04T12:31:07.427Z,24.88
2023-02-04T12:33:34.866Z,49.28
2023-02-04T12:36:01.875Z,46.38
2023-02-04T12:38:30.264Z,57.72
2023-02-04T12:40:59.018Z,19.30
2023-02-04T12:43:28.361Z,29.42
2023-02-04T12:45:55.924Z,23.55
2023-02-04T12:48:23.352Z,23.83
2023-02-04T12:50:50.486Z,29.65
2023-02-04T12:53:17.900Z,23.70
2023-02-04T12:55:45.024Z,153.27
2023-02-04T12:58:12.817Z,243.25
2023-02-04T13:00:40.210Z,35.13
2023-02-04T13:03:07.556Z,20.20
2023-02-04T13:05:36.137Z,11.57
2023-02-04T13:08:03.558Z,11.55
2023-02-04T13:10:30.742Z,7.25
2023-02-04T13:12:59.895Z,7.47
2023-02-04T13:15:27.491Z,6.75
2023-02-04T13:17:55.020Z,11.60
2023-02-04T13:20:22.248Z,9.52
2023-02-04T13:22:51.882Z,7.20
2023-02-04T13:25:22.974Z,10.93
2023-02-04T13:27:50.797Z,15.60
2023-02-04T13:30:18.182Z,8.10
2023-02-04T13:32:47.997Z,17.38
2023-02-04T13:35:15.201Z,19.40
2023-02-04T13:37:44.192Z,17.17
2023-02-04T13:40:12.161Z,56.75
2023-02-04T13:42:39.460Z,67.68
2023-02-04T13:45:07.767Z,30.63
2023-02-04T13:47:35.471Z,30.85
2023-02-04T13:50:02.526Z,24.40
2023-02-04T13:52:33.548Z,17.98
2023-02-04T13:55:01.209Z,27.40
2023-02-04T13:57:30.973Z,36.42
2023-02-04T13:59:58.455Z,108.53
2023-02-04T14:02:25.832Z,38.65
2023-02-04T14:04:53.329Z,78.03
2023-02-04T14:07:22.748Z,160.38
2023-02-04T14:09:50.414Z,532.70
2023-02-04T14:12:20.948Z,382.67
2023-02-04T14:14:49.291Z,165.90
2023-02-04T14:17:16.782Z,122.82
2023-02-04T14:19:44.099Z,33.83
2023-02-04T14:22:13.215Z,20.83
2023-02-04T14:24:42.606Z,16.30
2023-02-04T14:27:10.955Z,13.00
2023-02-04T14:29:38.111Z,10.52
2023-02-04T14:32:05.778Z,10.85
2023-02-04T14:34:32.909Z,7.93
2023-02-04T14:37:00.273Z,11.75
2023-02-04T14:39:27.949Z,38.33
2023-02-04T14:41:58.281Z,9.50
2023-02-04T14:44:25.393Z,11.80
2023-02-04T14:46:56.736Z,9.18
2023-02-04T14:49:26.652Z,7.65
2023-02-04T14:51:54.909Z,7.60
2023-02-04T14:54:22.073Z,12.30
2023-02-04T14:56:50.453Z,13.48
2023-02-04T14:59:19.669Z,24.55
2023-02-04T15:01:49.012Z,50.28
2023-02-04T15:04:18.419Z,72.00
2023-02-04T15:06:51.029Z,70.15
2023-02-04T15:09:18.490Z,50.03
2023-02-04T15:11:46.012Z,35.22
2023-02-04T15:14:13.262Z,30.85
2023-02-04T15:16:43.114Z,31.80
2023-02-04T15:19:11.216Z,37.25
2023-02-04T15:21:38.766Z,32.10
2023-02-04T15:24:06.433Z,41.35
2023-02-04T15:26:36.988Z,37.30
2023-02-04T15:29:05.370Z,27.15
2023-02-04T15:31:32.826Z,14.48
2023-02-04T15:34:01.288Z,17.63
2023-02-04T15:36:28.833Z,21.02
2023-02-04T15:38:56.900Z,16.98
2023-02-04T15:41:24.454Z,103.15
2023-02-04T15:43:51.934Z,264.15
2023-02-04T15:46:21.046Z,134.35
2023-02-04T15:48:49.015Z,23.55
2023-02-04T15:51:16.638Z,35.60
2023-02-04T15:53:43.922Z,26.02
2023-02-04T15:56:14.474Z,36.55
2023-02-04T15:58:41.599Z,19.88
2023-02-04T16:01:09.171Z,14.85
2023-02-04T16:03:36.703Z,15.25
2023-02-04T16:06:05.270Z,26.33
2023-02-04T16:08:32.827Z,23.52
2023-02-04T16:11:00.182Z,23.42
2023-02-04T16:13:29.869Z,43.95
2023-02-04T16:15:57.525Z,32.75
2023-02-04T16:18:25.704Z,32.75
2023-02-04T16:20:55.837Z,15.18
2023-02-04T16:23:23.293Z,17.33
2023-02-04T16:25:52.030Z,13.98
2023-02-04T16:28:22.743Z,23.27
2023-02-04T16:30:53.492Z,21.20
2023-02-04T16:33:20.680Z,36.70
2023-02-04T16:36:00.196Z,29.20
2023-02-04T16:38:28.147Z,18.33
2023-02-04T16:40:55.566Z,40.28
2023-02-04T16:43:23.773Z,67.00
2023-02-04T16:45:52.264Z,79.03
2023-02-04T16:48:19.500Z,81.97
2023-02-04T16:50:46.876Z,58.72
2023-02-04T16:53:17.092Z,64.85
2023-02-04T16:55:45.483Z,66.72
2023-02-04T16:58:14.310Z,62.30
2023-02-04T17:00:43.466Z,85.60
2023-02-04T17:03:12.427Z,86.45
2023-02-04T17:05:40.808Z,296.83
2023-02-04T17:08:08.659Z,93.50
2023-02-04T17:11:13.188Z,52.70
2023-02-04T17:13:42.117Z,59.00
2023-02-04T17:16:09.895Z,53.97
2023-02-04T17:18:37.257Z,59.80
2023-02-04T17:21:05.933Z,50.70
2023-02-04T17:23:33.415Z,56.67
2023-02-04T17:26:00.699Z,42.70
2023-02-04T17:28:27.741Z,102.30
2023-02-04T17:30:55.120Z,78.35
2023-02-04T17:33:22.717Z,55.50
2023-02-04T17:35:50.418Z,61.08
2023-02-04T17:38:17.463Z,34.28
2023-02-04T17:40:44.875Z,32.03
2023-02-04T17:43:12.089Z,36.03
2023-02-04T17:45:39.623Z,34.15
2023-02-04T17:48:06.750Z,83.28
2023-02-04T17:53:11.855Z,83.75
2023-02-04T17:55:39.899Z,106.78
2023-02-04T17:58:14.607Z,66.57
2023-02-04T18:00:45.045Z,74.15
2023-02-04T18:03:14.598Z,123.82
2023-02-04T18:05:50.234Z,48.33
2023-02-04T18:08:21.708Z,24.30
2023-02-04T18:10:51.224Z,22.50
2023-02-04T18:13:25.463Z,34.72
2023-02-04T18:15:56.240Z,29.90
2023-02-04T18:18:26.026Z,20.60
2023-02-04T18:21:21.973Z,16.83
2023-02-04T18:24:09.274Z,8.07
2023-02-04T18:26:46.899Z,11.85
2023-02-04T18:29:35.580Z,19.80
2023-02-04T18:32:25.805Z,16.13
2023-02-04T18:34:55.223Z,15.18
2023-02-04T18:37:46.677Z,181.10
2023-02-04T18:40:27.635Z,121.32
2023-02-04T18:43:50.980Z,157.60
2023-02-04T18:46:31.349Z,40.80
2023-02-04T18:49:03.206Z,33.00
2023-02-04T18:51:33.356Z,38.88
2023-02-04T18:54:18.514Z,22.42
2023-02-04T18:56:48.328Z,36.10
2023-02-04T18:59:18.058Z,15.68
2023-02-04T19:01:47.713Z,18.85
2023-02-04T19:04:22.445Z,15.93
2023-02-04T19:06:52.286Z,11.63
2023-02-04T19:09:26.797Z,12.32
2023-02-04T19:11:56.389Z,11.68
2023-02-04T19:14:39.076Z,12.85
2023-02-04T19:17:27.128Z,12.65
2023-02-04T19:19:57.868Z,23.80
2023-02-04T19:22:46.097Z,33.88
2023-02-04T19:25:22.620Z,13.00
2023-02-04T19:27:58.584Z,14.25
2023-02-04T19:30:29.495Z,10.77
2023-02-04T19:33:13.891Z,11.68
2023-02-04T19:35:46.751Z,9.18
2023-02-04T19:38:41.192Z,16.83
2023-02-04T19:41:33.323Z,18.88
2023-02-04T19:44:12.615Z,14.70
2023-02-04T19:46:41.186Z,15.80
2023-02-04T19:49:29.451Z,17.27
2023-02-04T19:51:58.735Z,15.35
2023-02-04T19:54:38.756Z,64.88
2023-02-04T19:57:21.882Z,58.53
2023-02-04T19:59:49.028Z,20.85
2023-02-04T20:02:19.586Z,18.05
2023-02-04T20:04:50.058Z,19.83
2023-02-04T20:07:24.087Z,16.50
2023-02-04T20:10:02.620Z,11.98
2023-02-04T20:12:32.198Z,20.60
2023-02-04T20:15:02.470Z,31.98
2023-02-04T20:17:41.362Z,17.35
2023-02-04T20:20:29.909Z,20.80
2023-02-04T20:23:02.359Z,18.13
2023-02-04T20:25:48.761Z,15.10
2023-02-04T20:28:16.606Z,24.10
2023-02-04T20:30:44.713Z,15.32
2023-02-04T20:33:28.181Z,18.75
2023-02-04T20:36:23.382Z,12.50
2023-02-04T20:38:53.593Z,17.30
2023-02-04T20:41:21.190Z,15.40
2023-02-04T20:43:51.672Z,12.65
2023-02-04T20:46:25.748Z,18.92
2023-02-04T20:48:53.557Z,12.77
2023-02-04T20:51:23.550Z,16.33
2023-02-04T20:53:57.476Z,20.75
2023-02-04T20:56:40.642Z,17.25
2023-02-04T20:59:30.327Z,37.85
2023-02-04T21:01:57.832Z,15.63
2023-02-04T21:04:43.971Z,18.33
2023-02-04T21:07:19.615Z,16.30
2023-02-04T21:09:48.214Z,13.27
2023-02-04T21:12:17.821Z,43.25
2023-02-04T21:14:45.122Z,77.85
2023-02-04T21:17:14.153Z,78.22
2023-02-04T21:19:41.474Z,88.78
2023-02-04T21:22:08.617Z,50.50
2023-02-04T21:24:39.420Z,32.67
2023-02-04T21:27:06.438Z,19.00
2023-02-04T21:29:33.816Z,17.42
2023-02-04T21:32:00.918Z,28.30
2023-02-04T21:34:28.712Z,25.17
2023-02-04T21:36:57.206Z,24.23
2023-02-04T21:39:24.876Z,35.15
2023-02-04T21:42:10.166Z,37.40
2023-02-04T21:44:38.740Z,29.27
2023-02-04T21:47:06.475Z,42.35
2023-02-04T21:49:34.127Z,65.80
2023-02-04T21:52:01.217Z,45.58
2023-02-04T21:54:28.557Z,52.95
2023-02-04T21:57:01.936Z,59.92
2023-02-04T21:59:29.270Z,18.98
2023-02-04T22:01:56.579Z,23.75
2023-02-04T22:04:23.919Z,22.52
2023-02-04T22:06:50.919Z,29.27
2023-02-04T22:09:20.632Z,19.90
2023-02-04T22:11:48.618Z,20.70
2023-02-04T22:14:21.502Z,36.60
2023-02-04T22:16:50.959Z,27.05
2023-02-04T22:19:19.741Z,40.58
2023-02-04T22:21:46.897Z,21.02
2023-02-04T22:24:14.218Z,17.67
2023-02-04T22:26:41.677Z,21.10
2023-02-04T22:29:09.087Z,17.85
2023-02-04T22:31:36.235Z,18.98
2023-02-04T22:34:05.510Z,14.63
2023-02-04T22:36:32.500Z,15.95
2023-02-04T22:38:59.816Z,22.42
2023-02-04T22:41:26.855Z,38.33
2023-02-04T22:43:54.199Z,18.85
2023-02-04T22:46:22.904Z,18.55
2023-02-04T22:48:50.373Z,17.35
2023-02-04T22:51:17.461Z,19.05
2023-02-04T22:53:44.711Z,19.75
2023-02-04T22:56:11.782Z,19.65
2023-02-04T22:58:40.550Z,24.30
2023-02-04T23:01:07.723Z,25.15
2023-02-04T23:03:35.476Z,19.80
2023-02-04T23:06:03.830Z,21.48
2023-02-04T23:08:31.415Z,17.63
2023-02-04T23:10:58.602Z,17.20
2023-02-04T23:13:26.489Z,18.48
2023-02-04T23:15:56.598Z,17.55
2023-02-04T23:18:24.030Z,24.15
2023-02-04T23:20:51.073Z,32.20
2023-02-04T23:23:19.063Z,29.58
2023-02-04T23:25:49.729Z,29.98
2023-02-04T23:28:17.141Z,54.05
2023-02-04T23:30:44.209Z,70.72
2023-02-04T23:33:11.529Z,42.88
2023-02-04T23:35:39.053Z,35.42
2023-02-04T23:38:07.123Z,35.70
2023-02-04T23:40:34.384Z,29.00
2023-02-04T23:43:02.038Z,23.35
2023-02-04T23:45:29.166Z,20.13
2023-02-04T23:47:56.504Z,20.33
2023-02-04T23:50:23.634Z,20.30
2023-02-04T23:52:51.088Z,20.85
2023-02-04T23:55:18.763Z,21.17
2023-02-04T23:57:49.613Z,22.90
